Impacts TAF Board
For situational awareness. Not to be used for flight planning purposes.
IDs:

KAUS - Austin/Bergstrom Int, TX, US

Issued at 1120 UTC 05 Aug 2020
Updated at 1547 UTC 05 Aug 2020
Potential Impact None Slight Moderate High
Time1453Z 05/16Z 05/17Z 05/18Z 05/19Z 05/20Z 05/21Z 05/22Z 05/23Z 06/00Z 06/01Z 06/02Z 06/03Z 06/04Z>>
Type OBS PRVL PRVL PRVL PRVL PRVL PRVL PRVL PRVL PRVL PRVL PRVL PRVL PRVL
VIS 10 >6 >6 >6 >6 >6 >6 >6 >6 >6 >6 >6 >6 >6
CIG -- -- -- -- -- -- -- -- -- -- -- -- -- --
Cover FEW FEW FEW FEW FEW FEW FEW FEW FEW FEW FEW FEW FEW SKC
FltCat VFR VFR VFR VFR VFR VFR VFR VFR VFR VFR VFR VFR VFR VFR
WX -- -- -- -- -- -- -- -- -- -- -- -- -- --
WDir 210 200 170 170 170 170 170 170 170 170 170 170 170 180
WSpd 10 6 12 12 12 12 12 12 12 12 12 12 12 6
WGst -- -- -- -- -- -- -- -- -- -- -- -- -- --
R17/35
XWnd -5 -2 2 2 2 2 2 2 2 2 2 2 2 -0
HWnd 9 6 12 12 12 12 12 12 12 12 12 12 12 6
Raw TAF
KAUS 051120Z 0512/0618 20006KT P6SM FEW012
  FM051700 17012KT P6SM FEW060
  FM060400 18006KT P6SM SKC
  FM061100 20007KT P6SM BKN012
  FM061500 20007KT P6SM SCT030


Raw METAR
KAUS 051453Z 21010KT 10SM FEW300 29/22 A3001 RMK AO2 SLP150 T02940222 50006
KAUS 051353Z 21011G18KT 10SM FEW016 SCT200 27/23 A3001 RMK AO2 SLP151 T02720233
KAUS 051253Z 21006KT 10SM FEW200 25/23 A3000 RMK AO2 SLP148 T02500228 $

METAR Board
Radar Display
Forecast Discussion
For situational awareness. Not to be used for flight planning purposes.